createdAt,value
2022-11-06T00:04:35.791Z,0
2022-11-06T00:10:58.777Z,0
2022-11-06T00:17:18.775Z,0
2022-11-06T00:23:41.776Z,0
2022-11-06T00:30:01.783Z,0
2022-11-06T00:36:24.779Z,0
2022-11-06T00:42:44.815Z,0
2022-11-06T00:49:07.762Z,0
2022-11-06T00:55:27.900Z,0
2022-11-06T01:01:51.060Z,0
2022-11-06T01:08:11.124Z,0
2022-11-06T01:14:33.787Z,0
2022-11-06T01:20:53.728Z,0
2022-11-06T01:27:32.092Z,0
2022-11-06T01:33:36.785Z,0
2022-11-06T01:39:59.749Z,0
2022-11-06T01:46:19.826Z,0
2022-11-06T01:52:42.850Z,0
2022-11-06T01:59:02.814Z,0
2022-11-06T02:05:25.770Z,0
2022-11-06T02:11:45.878Z,0
2022-11-06T02:18:08.805Z,0
2022-11-06T02:24:28.772Z,0
2022-11-06T02:30:51.892Z,0
2022-11-06T02:37:11.864Z,0
2022-11-06T02:43:34.730Z,0
2022-11-06T02:49:54.860Z,0
2022-11-06T02:56:17.831Z,0
2022-11-06T03:02:38.052Z,0
2022-11-06T03:09:00.763Z,0
2022-11-06T03:15:20.782Z,0
2022-11-06T03:21:43.809Z,0
2022-11-06T03:28:03.760Z,0
2022-11-06T03:34:26.770Z,0
2022-11-06T03:40:46.740Z,0
2022-11-06T03:47:09.838Z,0
2022-11-06T03:53:29.734Z,0
2022-11-06T03:59:52.748Z,0
2022-11-06T04:06:12.772Z,0
2022-11-06T04:12:35.744Z,0
2022-11-06T04:18:55.811Z,0
2022-11-06T04:35:05.680Z,0
2022-11-06T04:41:26.002Z,0
2022-11-06T04:47:48.752Z,0
2022-11-06T04:54:08.847Z,0
2022-11-06T05:00:31.827Z,0
2022-11-06T05:06:51.797Z,0
2022-11-06T05:13:14.788Z,0
2022-11-06T05:19:34.775Z,0
2022-11-06T05:25:57.794Z,0
2022-11-06T05:32:17.822Z,0
2022-11-06T05:38:40.821Z,0
2022-11-06T05:45:00.734Z,0
2022-11-06T05:51:23.772Z,0
2022-11-06T05:57:43.805Z,0
2022-11-06T06:04:06.766Z,0
2022-11-06T06:10:26.833Z,0
2022-11-06T06:16:49.758Z,0
2022-11-06T06:23:09.855Z,0
2022-11-06T06:29:32.870Z,0
2022-11-06T06:35:52.740Z,0
2022-11-06T06:42:15.794Z,0
2022-11-06T06:48:35.785Z,0
2022-11-06T06:54:58.772Z,5.62
2022-11-06T07:01:19.005Z,5.62
2022-11-06T07:07:41.832Z,5.62
2022-11-06T07:14:01.782Z,11.25
2022-11-06T07:20:24.784Z,11.25
2022-11-06T07:26:44.795Z,11.25
2022-11-06T07:33:07.776Z,11.25
2022-11-06T07:39:27.805Z,16.88
2022-11-06T07:45:50.907Z,16.88
2022-11-06T07:52:10.801Z,16.88
2022-11-06T07:58:33.768Z,22.5
2022-11-06T08:04:53.852Z,22.5
2022-11-06T08:11:16.780Z,28.12
2022-11-06T08:17:36.742Z,28.12
2022-11-06T08:23:59.781Z,22.5
2022-11-06T08:30:19.759Z,28.12
2022-11-06T08:36:45.577Z,28.12
2022-11-06T08:43:02.792Z,33.75
2022-11-06T08:49:25.740Z,33.75
2022-11-06T08:55:46.084Z,33.75
2022-11-06T09:02:08.843Z,33.75
2022-11-06T09:08:28.802Z,39.38
2022-11-06T09:14:51.791Z,45
2022-11-06T09:21:11.854Z,45
2022-11-06T09:27:34.754Z,50.62
2022-11-06T09:51:16.711Z,50.62
2022-11-06T09:57:36.750Z,67.5
2022-11-06T10:03:59.762Z,73.12
2022-11-06T10:10:19.831Z,56.25
2022-11-06T10:16:42.738Z,61.88
2022-11-06T10:23:02.822Z,45
2022-11-06T10:29:25.770Z,45
2022-11-06T10:35:45.744Z,39.38
2022-11-06T10:42:08.795Z,45
2022-11-06T10:48:30.930Z,50.62
2022-11-06T10:54:51.777Z,50.62
2022-11-06T11:01:11.790Z,45
2022-11-06T11:07:34.763Z,50.62
2022-11-06T11:13:54.763Z,50.62
2022-11-06T11:20:17.741Z,50.62
2022-11-06T11:26:37.860Z,50.62
2022-11-06T11:33:00.737Z,50.62
2022-11-06T11:39:20.732Z,50.62
2022-11-06T11:45:43.834Z,50.62
2022-11-06T11:52:03.747Z,61.88
2022-11-06T11:58:26.782Z,84.38
2022-11-06T12:04:46.783Z,146.25
2022-11-06T12:11:09.732Z,129.38
2022-11-06T12:17:29.783Z,73.12
2022-11-06T12:23:52.750Z,78.75
2022-11-06T12:30:12.792Z,45
2022-11-06T12:36:35.765Z,101.25
2022-11-06T12:42:55.758Z,56.25
2022-11-06T12:49:18.784Z,56.25
2022-11-06T12:55:38.737Z,56.25
2022-11-06T13:02:02.012Z,56.25
2022-11-06T13:08:21.728Z,50.62
2022-11-06T13:14:44.738Z,50.62
2022-11-06T13:21:04.795Z,33.75
2022-11-06T13:27:27.751Z,28.12
2022-11-06T13:33:47.776Z,33.75
2022-11-06T13:40:10.848Z,33.75
2022-11-06T13:46:30.780Z,45
2022-11-06T13:52:53.739Z,33.75
2022-11-06T13:59:13.758Z,16.88
2022-11-06T14:05:36.791Z,16.88
2022-11-06T14:11:56.760Z,11.25
2022-11-06T14:18:19.825Z,11.25
2022-11-06T14:24:39.740Z,11.25
2022-11-06T14:31:11.936Z,5.62
2022-11-06T14:37:25.749Z,5.62
2022-11-06T14:43:45.759Z,0
2022-11-06T14:50:05.801Z,0
2022-11-06T14:56:28.759Z,5.62
2022-11-06T15:02:48.913Z,0
2022-11-06T15:20:01.695Z,0
2022-11-06T15:26:21.729Z,0
2022-11-06T15:32:44.781Z,0
2022-11-06T15:39:04.792Z,0
2022-11-06T15:45:27.725Z,0
2022-11-06T15:51:47.763Z,0
2022-11-06T15:58:11.024Z,0
2022-11-06T16:04:31.033Z,0
2022-11-06T16:10:53.819Z,0
2022-11-06T16:17:13.801Z,0
2022-11-06T16:23:39.140Z,0
2022-11-06T16:29:56.773Z,0
2022-11-06T16:36:19.776Z,0
2022-11-06T16:42:39.828Z,0
2022-11-06T16:49:02.791Z,0
2022-11-06T16:55:22.875Z,0
2022-11-06T17:01:45.902Z,0
2022-11-06T17:08:05.791Z,0
2022-11-06T17:14:29.052Z,0
2022-11-06T17:20:48.789Z,0
2022-11-06T17:27:11.850Z,0
2022-11-06T17:33:32.016Z,0
2022-11-06T17:39:54.886Z,0
2022-11-06T17:46:14.750Z,0
2022-11-06T17:52:37.812Z,0
2022-11-06T17:58:57.793Z,0
2022-11-06T18:05:20.793Z,0
2022-11-06T18:11:40.786Z,0
2022-11-06T18:18:03.754Z,0
2022-11-06T18:24:23.846Z,0
2022-11-06T18:30:46.820Z,0
2022-11-06T18:37:06.768Z,0
2022-11-06T18:43:29.762Z,0
2022-11-06T18:49:49.801Z,0
2022-11-06T18:56:12.770Z,0
2022-11-06T19:02:32.953Z,0
2022-11-06T19:08:55.767Z,0
2022-11-06T19:15:15.819Z,0
2022-11-06T19:21:38.777Z,0
2022-11-06T19:27:58.778Z,0
2022-11-06T19:34:21.749Z,0
2022-11-06T19:40:41.814Z,0
2022-11-06T19:47:05.145Z,0
2022-11-06T19:53:24.720Z,0
2022-11-06T19:59:47.775Z,0
2022-11-06T20:06:08.331Z,0
2022-11-06T20:28:55.783Z,0
2022-11-06T20:35:18.728Z,0
2022-11-06T20:41:38.759Z,0
2022-11-06T20:48:01.770Z,0
2022-11-06T20:54:21.742Z,0
2022-11-06T21:00:44.800Z,0
2022-11-06T21:07:04.756Z,0
2022-11-06T21:13:27.822Z,0
2022-11-06T21:19:47.742Z,0
2022-11-06T21:26:10.869Z,0
2022-11-06T21:32:30.833Z,0
2022-11-06T21:38:53.757Z,0
2022-11-06T21:45:15.020Z,0
2022-11-06T21:51:36.751Z,0
2022-11-06T21:57:56.729Z,0
2022-11-06T22:04:19.821Z,0
2022-11-06T22:10:39.746Z,0
2022-11-06T22:17:02.762Z,0
2022-11-06T22:23:22.796Z,0
2022-11-06T22:29:45.734Z,0
2022-11-06T22:36:05.792Z,0
2022-11-06T22:42:28.760Z,0
2022-11-06T22:48:48.760Z,0
2022-11-06T22:55:11.767Z,0
2022-11-06T23:20:42.884Z,0
2022-11-06T23:27:02.749Z,0
2022-11-06T23:33:25.818Z,0
2022-11-06T23:39:45.786Z,0
2022-11-06T23:46:08.786Z,0
2022-11-06T23:52:28.745Z,0
2022-11-06T23:58:51.804Z,0
